createdAt,value
2018-05-29T00:01:49.364Z,17.70
2018-05-29T00:04:15.385Z,18.47
2018-05-29T00:06:41.396Z,18.07
2018-05-29T00:09:07.408Z,19.53
2018-05-29T00:11:33.445Z,19.57
2018-05-29T00:13:59.468Z,19.23
2018-05-29T00:16:25.494Z,19.03
2018-05-29T00:18:51.520Z,18.83
2018-05-29T00:21:17.540Z,19.20
2018-05-29T00:23:43.573Z,21.10
2018-05-29T00:26:09.592Z,20.17
2018-05-29T00:28:35.621Z,20.37
2018-05-29T00:31:01.660Z,22.30
2018-05-29T00:33:27.676Z,20.77
2018-05-29T00:35:53.685Z,21.77
2018-05-29T00:38:19.696Z,20.93
2018-05-29T00:40:45.708Z,23.13
2018-05-29T00:43:11.724Z,23.13
2018-05-29T00:45:37.748Z,23.53
2018-05-29T00:48:03.773Z,22.90
2018-05-29T00:50:29.789Z,23.80
2018-05-29T00:52:55.805Z,24.70
2018-05-29T00:55:32.977Z,23.73
2018-05-29T00:57:58.997Z,26.07
2018-05-29T01:00:25.016Z,25.47
2018-05-29T01:02:51.044Z,26.10
2018-05-29T01:05:17.061Z,26.57
2018-05-29T01:07:43.085Z,25.63
2018-05-29T01:10:09.101Z,26.53
2018-05-29T01:12:35.168Z,26.73
2018-05-29T01:15:01.149Z,27.57
2018-05-29T01:17:27.168Z,28.23
2018-05-29T01:19:53.192Z,25.50
2018-05-29T01:22:19.204Z,27.13
2018-05-29T01:24:45.233Z,28.40
2018-05-29T01:27:11.270Z,27.90
2018-05-29T01:29:37.293Z,28.50
2018-05-29T01:32:03.320Z,29.67
2018-05-29T01:34:29.350Z,28.80
2018-05-29T01:36:55.368Z,29.37
2018-05-29T01:39:21.385Z,30.37
2018-05-29T01:41:47.409Z,30.77
2018-05-29T01:44:13.426Z,30.83
2018-05-29T01:46:39.492Z,31.20
2018-05-29T01:49:05.529Z,29.97
2018-05-29T01:51:31.541Z,32.93
2018-05-29T01:53:57.561Z,33.83
2018-05-29T01:56:23.568Z,33.37
2018-05-29T01:58:49.600Z,31.77
2018-05-29T02:01:15.622Z,34.23
2018-05-29T02:03:41.632Z,33.03
2018-05-29T02:06:07.642Z,35.27
2018-05-29T02:08:33.664Z,33.97
2018-05-29T02:10:59.676Z,36.03
2018-05-29T02:13:25.705Z,35.67
2018-05-29T02:15:51.724Z,37.27
2018-05-29T02:18:17.749Z,36.80
2018-05-29T02:20:43.773Z,37.77
2018-05-29T02:23:09.804Z,39.07
2018-05-29T02:25:35.828Z,38.33
2018-05-29T02:28:01.850Z,39.40
2018-05-29T02:30:27.872Z,39.57
2018-05-29T02:32:53.898Z,39.60
2018-05-29T02:35:19.934Z,42.33
2018-05-29T02:37:45.973Z,41.63
2018-05-29T02:40:12.000Z,40.43
2018-05-29T02:42:38.020Z,41.70
2018-05-29T02:45:04.045Z,40.53
2018-05-29T02:47:30.107Z,42.13
2018-05-29T02:49:56.132Z,43.17
2018-05-29T02:52:22.153Z,43.23
2018-05-29T02:54:48.165Z,42.87
2018-05-29T02:57:14.184Z,43.77
2018-05-29T02:59:40.204Z,45.00
2018-05-29T03:02:06.229Z,46.30
2018-05-29T03:04:32.260Z,43.97
2018-05-29T03:06:58.280Z,44.03
2018-05-29T03:09:24.300Z,44.00
2018-05-29T03:11:50.309Z,46.83
2018-05-29T03:14:16.332Z,44.63
2018-05-29T03:16:42.348Z,47.17
2018-05-29T03:19:08.424Z,45.93
2018-05-29T03:21:34.453Z,47.13
2018-05-29T03:24:01.240Z,45.47
2018-05-29T03:26:27.267Z,47.20
2018-05-29T03:28:53.288Z,44.60
2018-05-29T03:31:19.321Z,46.40
2018-05-29T03:33:45.350Z,45.67
2018-05-29T03:36:11.365Z,43.97
2018-05-29T03:38:37.388Z,45.00
2018-05-29T03:41:03.419Z,43.77
2018-05-29T03:43:29.433Z,43.30
2018-05-29T03:45:55.460Z,45.37
2018-05-29T03:48:21.476Z,43.40
2018-05-29T03:50:47.491Z,42.93
2018-05-29T03:53:13.523Z,44.83
2018-05-29T03:55:39.552Z,44.00
2018-05-29T03:58:05.590Z,47.47
2018-05-29T04:00:31.624Z,49.17
2018-05-29T04:02:57.648Z,49.80
2018-05-29T04:05:23.668Z,51.73
2018-05-29T04:07:50.460Z,50.90
2018-05-29T04:10:16.509Z,53.03
2018-05-29T04:12:42.533Z,52.80
2018-05-29T04:15:08.574Z,52.90
2018-05-29T04:17:34.619Z,53.17
2018-05-29T04:20:00.649Z,53.87
2018-05-29T04:22:26.689Z,52.03
2018-05-29T04:24:53.449Z,52.83
2018-05-29T04:27:19.477Z,52.90
2018-05-29T04:29:45.504Z,49.87
2018-05-29T04:32:11.522Z,51.40
2018-05-29T04:34:37.543Z,52.50
2018-05-29T04:37:03.564Z,49.27
2018-05-29T04:39:29.592Z,50.80
2018-05-29T04:42:10.613Z,48.67
2018-05-29T04:44:51.649Z,49.40
2018-05-29T04:47:32.668Z,51.20
2018-05-29T04:50:13.673Z,51.23
2018-05-29T04:52:54.702Z,51.83
2018-05-29T04:55:35.727Z,51.33
2018-05-29T04:58:16.753Z,51.27
2018-05-29T05:00:57.756Z,50.03
2018-05-29T05:03:38.776Z,52.13
2018-05-29T05:06:19.792Z,51.17
2018-05-29T05:09:00.870Z,52.73
2018-05-29T05:11:41.834Z,50.27
2018-05-29T05:14:22.888Z,50.40
2018-05-29T05:17:03.896Z,51.63
2018-05-29T05:19:44.945Z,53.40
2018-05-29T05:22:25.964Z,52.27
2018-05-29T05:25:06.989Z,50.47
2018-05-29T05:27:48.016Z,50.90
2018-05-29T05:30:29.058Z,53.57
2018-05-29T05:33:10.107Z,51.33
2018-05-29T05:35:51.132Z,50.63
2018-05-29T05:38:32.168Z,50.30
2018-05-29T05:41:13.190Z,50.00
2018-05-29T05:43:54.205Z,52.80
2018-05-29T05:46:35.225Z,52.67
2018-05-29T05:49:16.261Z,48.97
2018-05-29T05:51:57.307Z,51.90
2018-05-29T05:54:38.338Z,51.00
2018-05-29T05:57:19.348Z,51.30
2018-05-29T06:00:01.117Z,53.13
2018-05-29T06:02:42.129Z,51.13
2018-05-29T06:05:23.889Z,49.43
2018-05-29T06:08:04.912Z,51.93
2018-05-29T06:10:45.936Z,51.40
2018-05-29T06:13:26.956Z,50.60
2018-05-29T06:16:07.985Z,52.47
2018-05-29T06:18:49.000Z,50.40
2018-05-29T06:21:30.009Z,49.73
2018-05-29T06:24:11.037Z,52.73
2018-05-29T06:26:52.060Z,50.70
2018-05-29T06:29:33.080Z,53.37
2018-05-29T06:32:14.105Z,53.43
2018-05-29T06:34:55.145Z,52.13
2018-05-29T06:37:36.164Z,52.63
2018-05-29T06:40:17.217Z,54.77
2018-05-29T06:42:58.980Z,53.27
2018-05-29T06:45:40.001Z,55.67
2018-05-29T06:48:21.017Z,53.53
2018-05-29T06:51:02.038Z,52.83
2018-05-29T06:53:43.084Z,54.57
2018-05-29T06:56:24.109Z,53.60
2018-05-29T06:59:05.124Z,52.27
2018-05-29T07:01:46.158Z,54.70
2018-05-29T07:04:27.173Z,54.47
2018-05-29T07:07:08.978Z,53.57
2018-05-29T07:09:49.994Z,52.93
2018-05-29T07:12:31.025Z,50.53
2018-05-29T07:15:12.042Z,55.83
2018-05-29T07:17:53.090Z,57.13
2018-05-29T07:20:34.108Z,54.53
2018-05-29T07:23:15.124Z,54.43
2018-05-29T07:25:56.145Z,52.00
2018-05-29T07:28:37.177Z,54.27
2018-05-29T07:31:18.189Z,53.40
2018-05-29T07:33:59.952Z,49.87
2018-05-29T07:36:40.980Z,52.20
2018-05-29T07:39:22.005Z,51.37
2018-05-29T07:42:03.024Z,53.77
2018-05-29T07:44:44.056Z,53.87
2018-05-29T07:47:25.078Z,51.53
2018-05-29T07:50:06.090Z,49.57
2018-05-29T07:52:47.120Z,48.73
2018-05-29T07:55:28.143Z,51.90
2018-05-29T07:58:09.163Z,50.97
2018-05-29T08:00:50.948Z,46.27
2018-05-29T08:03:32.721Z,48.43
2018-05-29T08:06:13.756Z,45.43
2018-05-29T08:08:54.776Z,52.90
2018-05-29T08:11:35.824Z,53.73
2018-05-29T08:14:16.853Z,47.33
2018-05-29T08:16:58.613Z,48.83
2018-05-29T08:19:39.639Z,45.60
2018-05-29T08:22:20.646Z,50.47
2018-05-29T08:25:01.677Z,46.40
2018-05-29T08:27:42.692Z,48.57
2018-05-29T08:30:23.713Z,48.13
2018-05-29T08:33:04.746Z,49.13
2018-05-29T08:35:45.765Z,48.00
2018-05-29T08:38:26.786Z,47.17
2018-05-29T08:41:07.801Z,47.57
2018-05-29T08:43:48.829Z,47.13
2018-05-29T08:46:29.843Z,50.90
2018-05-29T08:49:10.873Z,44.17
2018-05-29T08:51:51.932Z,48.70
2018-05-29T08:54:33.709Z,47.93
2018-05-29T08:57:14.732Z,48.33
2018-05-29T08:59:55.774Z,49.30
2018-05-29T09:02:36.789Z,48.20
2018-05-29T09:05:17.822Z,46.97
2018-05-29T09:07:59.593Z,45.33
2018-05-29T09:10:40.635Z,48.00
2018-05-29T09:13:21.665Z,46.67
2018-05-29T09:16:02.681Z,45.53
2018-05-29T09:18:43.693Z,49.67
2018-05-29T09:21:24.709Z,47.37
2018-05-29T09:24:05.730Z,44.80
2018-05-29T09:26:46.802Z,44.57
2018-05-29T09:29:27.825Z,44.87
2018-05-29T09:32:08.841Z,49.33
2018-05-29T09:34:49.877Z,49.63
2018-05-29T09:37:30.922Z,50.13
2018-05-29T09:40:11.996Z,44.57
2018-05-29T09:42:52.956Z,39.93
2018-05-29T09:45:33.989Z,40.43
2018-05-29T09:48:15.012Z,37.43
2018-05-29T09:50:56.097Z,38.70
2018-05-29T09:53:37.132Z,34.53
2018-05-29T09:56:18.149Z,39.43
2018-05-29T09:58:59.233Z,40.00
2018-05-29T10:01:40.256Z,36.37
2018-05-29T10:04:21.285Z,27.70
2018-05-29T10:07:02.364Z,32.90
2018-05-29T10:09:43.344Z,34.83
2018-05-29T10:12:24.360Z,30.93
2018-05-29T10:14:50.384Z,31.90
2018-05-29T10:17:31.414Z,30.83
2018-05-29T10:20:12.454Z,34.03
2018-05-29T10:22:53.465Z,37.60
2018-05-29T10:25:34.550Z,36.70
2018-05-29T10:28:16.309Z,39.73
2018-05-29T10:30:57.382Z,39.17
2018-05-29T10:33:38.348Z,33.53
2018-05-29T10:36:19.372Z,34.17
2018-05-29T10:39:00.401Z,30.27
2018-05-29T10:41:41.437Z,32.97
2018-05-29T10:44:22.477Z,36.97
2018-05-29T10:47:03.504Z,29.33
2018-05-29T10:49:44.553Z,30.50
2018-05-29T10:52:25.582Z,28.77
2018-05-29T10:55:06.613Z,28.37
2018-05-29T10:57:47.647Z,29.37
2018-05-29T11:00:28.690Z,29.70
2018-05-29T11:03:10.461Z,31.97
2018-05-29T11:05:51.489Z,25.73
2018-05-29T11:08:32.560Z,26.73
2018-05-29T11:11:13.596Z,29.30
2018-05-29T11:13:54.615Z,24.77
2018-05-29T11:16:35.656Z,25.40
2018-05-29T11:19:16.692Z,24.13
2018-05-29T11:21:57.708Z,26.27
2018-05-29T11:24:39.485Z,26.90
2018-05-29T11:27:20.513Z,26.03
2018-05-29T11:30:01.542Z,28.17
2018-05-29T11:32:42.571Z,25.33
2018-05-29T11:35:23.589Z,28.87
2018-05-29T11:38:04.627Z,31.90
2018-05-29T11:40:45.673Z,35.83
2018-05-29T11:43:26.701Z,27.23
2018-05-29T11:46:07.747Z,28.13
2018-05-29T11:48:48.776Z,25.77
2018-05-29T11:51:29.808Z,25.10
2018-05-29T11:54:10.825Z,27.03
2018-05-29T11:56:51.876Z,25.23
2018-05-29T11:59:32.908Z,24.17
2018-05-29T12:02:13.941Z,22.43
2018-05-29T12:04:54.972Z,24.90
2018-05-29T12:07:36.017Z,29.47
2018-05-29T12:10:17.032Z,29.33
2018-05-29T12:12:58.057Z,27.50
2018-05-29T12:15:39.080Z,21.77
2018-05-29T12:18:20.101Z,24.07
2018-05-29T12:21:01.141Z,27.63
2018-05-29T12:23:42.166Z,28.30
2018-05-29T12:26:23.193Z,24.97
2018-05-29T12:29:04.209Z,24.30
2018-05-29T12:31:45.255Z,20.90
2018-05-29T12:34:26.316Z,20.67
2018-05-29T12:37:07.318Z,20.47
2018-05-29T12:39:48.341Z,21.10
2018-05-29T12:42:29.349Z,21.67
2018-05-29T12:45:10.372Z,19.13
2018-05-29T12:47:51.397Z,22.00
2018-05-29T12:50:32.436Z,25.23
2018-05-29T12:53:13.519Z,24.10
2018-05-29T12:55:54.527Z,22.73
2018-05-29T12:58:35.560Z,21.00
2018-05-29T13:01:16.589Z,22.80
2018-05-29T13:03:57.617Z,25.53
2018-05-29T13:06:39.396Z,25.90
2018-05-29T13:09:20.433Z,25.53
2018-05-29T13:12:01.462Z,25.00
2018-05-29T13:14:42.497Z,26.00
2018-05-29T13:17:23.509Z,25.33
2018-05-29T13:20:04.557Z,28.60
2018-05-29T13:22:45.586Z,29.20
2018-05-29T13:25:26.625Z,28.03
2018-05-29T13:28:07.713Z,27.00
2018-05-29T13:30:48.714Z,26.83
2018-05-29T13:33:29.744Z,24.93
2018-05-29T13:36:10.777Z,27.73
2018-05-29T13:38:51.802Z,25.83
2018-05-29T13:41:32.820Z,27.87
2018-05-29T13:44:13.844Z,37.30
2018-05-29T13:46:54.861Z,37.67
2018-05-29T13:49:36.617Z,37.83
2018-05-29T13:52:17.696Z,38.17
2018-05-29T13:54:58.720Z,38.70
2018-05-29T13:57:39.745Z,45.70
2018-05-29T14:00:20.760Z,47.50
2018-05-29T14:03:01.785Z,56.87
2018-05-29T14:05:42.808Z,56.17
2018-05-29T14:08:23.828Z,62.10
2018-05-29T14:11:04.850Z,65.40
2018-05-29T14:13:45.869Z,67.27
2018-05-29T14:16:26.889Z,66.47
2018-05-29T14:19:07.921Z,63.43
2018-05-29T14:21:48.932Z,62.80
2018-05-29T14:24:29.975Z,62.90
2018-05-29T14:27:11.010Z,62.80
2018-05-29T14:29:52.065Z,61.87
2018-05-29T14:32:33.091Z,62.33
2018-05-29T14:35:14.121Z,59.70
2018-05-29T14:37:55.160Z,62.13
2018-05-29T14:40:36.181Z,63.17
2018-05-29T14:43:17.205Z,62.60
2018-05-29T14:45:58.229Z,63.03
2018-05-29T14:48:39.265Z,62.00
2018-05-29T14:51:20.285Z,61.00
2018-05-29T14:54:01.313Z,59.40
2018-05-29T14:56:42.320Z,58.13
2018-05-29T14:59:23.356Z,61.07
2018-05-29T15:02:04.377Z,58.33
2018-05-29T15:04:46.157Z,58.60
2018-05-29T15:07:27.192Z,59.00
2018-05-29T15:10:08.229Z,59.00
2018-05-29T15:12:49.263Z,54.47
2018-05-29T15:15:30.317Z,61.73
2018-05-29T15:18:11.324Z,59.83
2018-05-29T15:20:52.357Z,61.60
2018-05-29T15:23:33.404Z,59.47
2018-05-29T15:26:14.525Z,57.97
2018-05-29T15:28:55.496Z,54.13
2018-05-29T15:31:36.529Z,55.73
2018-05-29T15:34:17.549Z,52.77
2018-05-29T15:36:59.308Z,46.63
2018-05-29T15:39:40.328Z,41.63
2018-05-29T15:42:21.346Z,41.37
2018-05-29T15:45:02.369Z,35.53
2018-05-29T15:47:43.396Z,35.00
2018-05-29T15:50:24.417Z,33.23
2018-05-29T15:53:05.429Z,33.10
2018-05-29T15:55:46.440Z,32.07
2018-05-29T15:58:27.460Z,28.70
2018-05-29T16:01:08.486Z,26.40
2018-05-29T16:03:49.512Z,28.57
2018-05-29T16:06:30.521Z,26.80
2018-05-29T16:09:11.549Z,25.57
2018-05-29T16:11:52.565Z,26.90
2018-05-29T16:14:33.599Z,25.13
2018-05-29T16:17:14.669Z,27.50
2018-05-29T16:19:55.684Z,27.87
2018-05-29T16:22:36.700Z,26.93
2018-05-29T16:25:17.749Z,26.97
2018-05-29T16:27:58.772Z,25.57
2018-05-29T16:30:39.793Z,26.20
2018-05-29T16:33:20.824Z,27.07
2018-05-29T16:36:01.838Z,18.80
2018-05-29T16:38:42.905Z,13.10
2018-05-29T16:41:23.922Z,11.17
2018-05-29T16:44:04.957Z,14.70
2018-05-29T16:46:45.965Z,10.63
2018-05-29T16:49:26.981Z,8.33
2018-05-29T16:52:08.021Z,7.10
2018-05-29T16:54:49.040Z,9.17
2018-05-29T16:57:30.063Z,8.70
2018-05-29T17:00:11.073Z,7.70
2018-05-29T17:02:52.105Z,11.23
2018-05-29T17:05:33.921Z,12.87
2018-05-29T17:08:14.937Z,7.87
2018-05-29T17:10:56.696Z,7.67
2018-05-29T17:13:37.719Z,9.97
2018-05-29T17:16:19.512Z,11.83
2018-05-29T17:19:00.549Z,10.70
2018-05-29T17:21:41.581Z,10.23
2018-05-29T17:24:22.613Z,9.67
2018-05-29T17:27:03.632Z,11.07
2018-05-29T17:29:44.658Z,11.40
2018-05-29T17:32:25.684Z,12.20
2018-05-29T17:35:06.721Z,11.23
2018-05-29T17:37:48.485Z,10.97
2018-05-29T17:40:29.505Z,11.23
2018-05-29T17:43:11.277Z,10.50
2018-05-29T17:45:52.323Z,13.77
2018-05-29T17:48:33.358Z,14.50
2018-05-29T17:51:14.392Z,16.00
2018-05-29T17:53:55.433Z,20.00
2018-05-29T17:56:36.449Z,29.63
2018-05-29T17:59:17.473Z,34.37
2018-05-29T18:01:58.499Z,38.33
2018-05-29T18:04:39.541Z,35.07
2018-05-29T18:07:20.569Z,35.07
2018-05-29T18:10:01.595Z,35.97
2018-05-29T18:12:42.625Z,34.60
2018-05-29T18:15:23.632Z,33.57
2018-05-29T18:18:04.679Z,31.70
2018-05-29T18:20:45.769Z,28.10
2018-05-29T18:23:26.768Z,27.90
2018-05-29T18:26:07.801Z,26.00
2018-05-29T18:28:48.821Z,24.27
2018-05-29T18:31:29.840Z,23.03
2018-05-29T18:34:10.858Z,23.83
2018-05-29T18:36:51.885Z,22.83
2018-05-29T18:39:32.905Z,21.70
2018-05-29T18:42:13.982Z,23.80
2018-05-29T18:44:54.981Z,22.37
2018-05-29T18:47:35.993Z,23.37
2018-05-29T18:50:17.077Z,22.20
2018-05-29T18:52:58.076Z,24.30
2018-05-29T18:55:39.109Z,25.00
2018-05-29T18:58:20.137Z,26.10
2018-05-29T19:01:01.173Z,26.90
2018-05-29T19:03:42.200Z,28.37
2018-05-29T19:06:23.961Z,30.00
2018-05-29T19:09:05.729Z,29.23
2018-05-29T19:11:46.755Z,31.20
2018-05-29T19:14:27.777Z,30.30
2018-05-29T19:17:08.950Z,30.30
2018-05-29T19:19:49.846Z,29.57
2018-05-29T19:22:30.950Z,30.33
2018-05-29T19:25:11.993Z,30.43
2018-05-29T19:27:53.029Z,29.90
2018-05-29T19:30:34.061Z,30.07
2018-05-29T19:33:15.099Z,30.03
2018-05-29T19:35:56.129Z,30.77
2018-05-29T19:38:37.219Z,31.27
2018-05-29T19:41:18.262Z,31.47
2018-05-29T19:43:59.292Z,30.77
2018-05-29T19:46:40.348Z,34.23
2018-05-29T19:49:21.409Z,30.30
2018-05-29T19:52:02.475Z,32.87
2018-05-29T19:54:43.603Z,32.93
2018-05-29T19:57:24.661Z,34.93
2018-05-29T20:00:05.760Z,35.10
2018-05-29T20:02:46.789Z,35.70
2018-05-29T20:05:27.847Z,35.03
2018-05-29T20:08:08.894Z,34.93
2018-05-29T20:10:49.938Z,32.53
2018-05-29T20:13:30.946Z,29.70
2018-05-29T20:16:11.970Z,28.23
2018-05-29T20:18:52.985Z,29.07
2018-05-29T20:21:34.024Z,30.43
2018-05-29T20:24:15.049Z,28.77
2018-05-29T20:26:56.069Z,30.77
2018-05-29T20:29:37.085Z,28.60
2018-05-29T20:32:18.110Z,31.30
2018-05-29T20:34:59.141Z,31.50
2018-05-29T20:37:40.166Z,29.90
2018-05-29T20:40:21.224Z,33.37
2018-05-29T20:43:02.261Z,35.27
2018-05-29T20:45:43.294Z,36.77
2018-05-29T20:48:24.320Z,35.43
2018-05-29T20:51:05.341Z,35.33
2018-05-29T20:53:46.365Z,35.47
2018-05-29T20:56:27.403Z,36.20
2018-05-29T20:59:08.432Z,36.30
2018-05-29T21:01:49.456Z,34.40
2018-05-29T21:04:30.490Z,35.37
2018-05-29T21:07:11.525Z,33.87
2018-05-29T21:09:53.286Z,34.87
2018-05-29T21:12:34.317Z,32.53
2018-05-29T21:15:15.325Z,31.87
2018-05-29T21:17:56.358Z,29.10
2018-05-29T21:20:37.389Z,26.47
2018-05-29T21:23:19.168Z,26.77
2018-05-29T21:26:00.209Z,25.67
2018-05-29T21:28:41.232Z,25.93
2018-05-29T21:31:22.236Z,25.10
2018-05-29T21:34:03.262Z,27.90
2018-05-29T21:36:44.284Z,24.83
2018-05-29T21:39:25.313Z,24.20
2018-05-29T21:42:06.341Z,23.80
2018-05-29T21:44:47.360Z,22.53
2018-05-29T21:47:28.380Z,22.37
2018-05-29T21:50:09.409Z,21.73
2018-05-29T21:52:50.456Z,22.50
2018-05-29T21:55:31.493Z,21.00
2018-05-29T21:58:12.505Z,21.10
2018-05-29T22:00:54.268Z,21.03
2018-05-29T22:03:35.297Z,23.07
2018-05-29T22:06:16.321Z,20.63
2018-05-29T22:08:57.332Z,18.97
2018-05-29T22:11:38.356Z,20.43
2018-05-29T22:14:19.433Z,16.47
2018-05-29T22:17:00.456Z,16.90
2018-05-29T22:19:41.468Z,16.53
2018-05-29T22:22:22.493Z,15.03
2018-05-29T22:25:03.511Z,12.17
2018-05-29T22:27:44.541Z,14.70
2018-05-29T22:30:25.608Z,13.60
2018-05-29T22:33:06.638Z,13.37
2018-05-29T22:35:47.686Z,11.53
2018-05-29T22:38:28.729Z,11.10
2018-05-29T22:41:09.757Z,10.07
2018-05-29T22:43:50.783Z,8.40
2018-05-29T22:46:16.797Z,8.40
2018-05-29T22:48:43.544Z,8.37
2018-05-29T22:51:09.580Z,9.23
2018-05-29T22:53:35.668Z,9.47
2018-05-29T22:56:01.688Z,8.73
2018-05-29T22:58:27.700Z,9.40
2018-05-29T23:00:53.728Z,6.57
2018-05-29T23:03:19.762Z,7.23
2018-05-29T23:05:45.813Z,8.90
2018-05-29T23:08:12.565Z,8.30
2018-05-29T23:10:38.626Z,7.03
2018-05-29T23:13:04.617Z,6.23
2018-05-29T23:15:30.649Z,9.40
2018-05-29T23:17:56.681Z,7.27
2018-05-29T23:20:22.704Z,7.10
2018-05-29T23:22:48.736Z,6.37
2018-05-29T23:25:14.763Z,5.70
2018-05-29T23:27:40.789Z,9.00
2018-05-29T23:30:06.813Z,6.10
2018-05-29T23:32:32.838Z,7.13
2018-05-29T23:34:59.619Z,7.03
2018-05-29T23:37:25.656Z,5.83
2018-05-29T23:39:51.725Z,6.27
2018-05-29T23:42:17.753Z,7.33
2018-05-29T23:44:43.772Z,5.67
2018-05-29T23:47:09.800Z,7.77
2018-05-29T23:49:36.561Z,7.40
2018-05-29T23:52:02.589Z,5.77
2018-05-29T23:54:28.607Z,7.67
2018-05-29T23:56:54.650Z,7.40
2018-05-29T23:59:20.673Z,8.13
